Biddle, Montana
Current Conditions -  °F | °C
As of 8:53 PM on Monday 22 Dec 2014 (Local Time) from KGCC Reporting Station
Light Snow Light Snow  
Wind Chill: 17°   Ceiling: 3400
Heat Index: 30°   Visibility: 7mi
Dew Point: 24°   Wind: 23mph
Humidity: 79%   Direction: 340°NNW
Pressure: 29.85"   Gusts: 32mph
Location:  45.1°N, 105.35°W
Report Text: KGCC 230353Z AUTO 34020G28KT 7SM -SN BKN034 OVC047 M01/M04 A2985 RMK AO2 PK WND 34034/0254 SNE30B46 SLP130 P0000 T10111044 TSNO
Loading
Personal Weather Stations






























Interactive Weather Map New forecast layout! Learn more

10-Day Weather Forecast

Advertisements
Track Severe Weather on mobile